createdAt,value
2018-06-14T00:02:51.479Z,78.50
2018-06-14T00:08:00.174Z,78.50
2018-06-14T00:10:35.833Z,78.40
2018-06-14T00:30:13.005Z,78.80
2018-06-14T00:32:46.369Z,78.70
2018-06-14T00:35:15.587Z,78.90
2018-06-14T00:57:35.345Z,78.60
2018-06-14T01:00:11.783Z,78.60
2018-06-14T01:02:46.976Z,78.80
2018-06-14T01:05:17.544Z,78.80
2018-06-14T01:07:47.918Z,78.90
2018-06-14T01:10:17.510Z,80.00
2018-06-14T01:12:50.984Z,80.00
2018-06-14T01:15:20.783Z,80.00
2018-06-14T01:17:51.124Z,80.20
2018-06-14T01:20:20.164Z,80.10
2018-06-14T01:22:53.643Z,80.10
2018-06-14T01:25:23.592Z,80.10
2018-06-14T01:27:59.211Z,80.10
2018-06-14T01:53:39.804Z,80.30
2018-06-14T03:08:51.459Z,81.10
2018-06-14T03:11:20.017Z,81.00
2018-06-14T03:13:52.659Z,81.10
2018-06-14T03:16:21.314Z,81.00
2018-06-14T03:18:49.750Z,80.90
2018-06-14T03:21:30.172Z,80.90
2018-06-14T03:24:23.374Z,80.80
2018-06-14T03:26:52.070Z,80.70
2018-06-14T03:29:20.697Z,80.70
2018-06-14T03:31:49.325Z,80.80
2018-06-14T03:34:17.958Z,80.90
2018-06-14T03:36:46.563Z,80.90
2018-06-14T03:39:15.039Z,80.90
2018-06-14T03:41:43.716Z,81.00
2018-06-14T03:46:40.659Z,81.30
2018-06-14T03:49:09.212Z,81.40
2018-06-14T03:51:37.788Z,80.90
2018-06-14T03:54:06.985Z,81.30
2018-06-14T03:56:35.574Z,81.20
2018-06-14T03:59:05.020Z,81.20
2018-06-14T04:01:33.751Z,81.30
2018-06-14T04:04:02.417Z,81.30
2018-06-14T04:06:31.093Z,81.20
2018-06-14T04:08:59.789Z,81.20
2018-06-14T04:11:28.451Z,81.20
2018-06-14T04:13:56.995Z,81.20
2018-06-14T04:16:25.489Z,81.30
2018-06-14T04:18:54.540Z,81.50
2018-06-14T04:21:23.154Z,81.50
2018-06-14T04:23:52.323Z,81.50
2018-06-14T04:26:20.831Z,81.60
2018-06-14T04:28:49.641Z,81.50
2018-06-14T04:31:18.468Z,81.60
2018-06-14T04:36:15.313Z,81.50
2018-06-14T04:38:44.297Z,81.40
2018-06-14T04:41:12.914Z,81.40
2018-06-14T04:43:42.383Z,81.40
2018-06-14T04:46:10.991Z,81.50
2018-06-14T04:48:39.586Z,81.40
2018-06-14T04:51:08.284Z,81.30
2018-06-14T04:53:39.846Z,81.40
2018-06-14T04:56:10.526Z,81.30
2018-06-14T04:58:39.086Z,81.40
2018-06-14T05:01:08.514Z,81.40
2018-06-14T05:03:37.582Z,81.40
2018-06-14T05:06:06.497Z,81.50
2018-06-14T05:08:35.276Z,81.50
2018-06-14T05:11:03.972Z,81.60
2018-06-14T05:13:32.669Z,81.60
2018-06-14T05:16:02.332Z,80.30
2018-06-14T05:18:30.891Z,80.40
2018-06-14T05:20:59.550Z,80.20
2018-06-14T05:23:28.430Z,80.30
2018-06-14T05:25:56.993Z,80.30
2018-06-14T05:28:25.854Z,80.40
2018-06-14T05:30:55.800Z,80.40
2018-06-14T05:33:24.354Z,81.10
2018-06-14T05:35:53.030Z,80.40
2018-06-14T05:38:21.702Z,80.40
2018-06-14T05:43:18.539Z,80.30
2018-06-14T05:45:47.064Z,80.20
2018-06-14T05:48:15.832Z,80.10
2018-06-14T05:50:44.384Z,80.00
2018-06-14T05:53:12.903Z,80.80
2018-06-14T05:55:41.536Z,80.00
2018-06-14T05:58:10.199Z,80.00
2018-06-14T06:00:38.912Z,79.90
2018-06-14T06:03:07.590Z,79.80
2018-06-14T06:05:36.188Z,79.70
2018-06-14T06:08:04.948Z,79.60
2018-06-14T06:10:33.615Z,79.40
2018-06-14T06:13:02.236Z,79.10
2018-06-14T06:15:30.892Z,79.10
2018-06-14T06:17:59.511Z,79.10
2018-06-14T06:20:28.114Z,79.20
2018-06-14T06:22:56.725Z,79.10
2018-06-14T06:25:25.407Z,79.20
2018-06-14T06:27:53.916Z,79.20
2018-06-14T06:30:22.621Z,79.20
2018-06-14T06:32:51.192Z,79.30
2018-06-14T06:35:19.751Z,79.20
2018-06-14T06:40:16.506Z,79.10
2018-06-14T06:42:44.952Z,79.10
2018-06-14T06:45:13.528Z,79.10
2018-06-14T06:47:42.101Z,79.00
2018-06-14T06:50:10.723Z,79.00
2018-06-14T06:52:39.236Z,78.90
2018-06-14T06:55:07.883Z,79.00
2018-06-14T06:57:36.459Z,79.00
2018-06-14T07:00:05.576Z,78.90
2018-06-14T07:02:34.775Z,78.80
2018-06-14T07:05:03.405Z,78.80
2018-06-14T07:07:32.071Z,78.80
2018-06-14T07:10:00.806Z,78.90
2018-06-14T07:12:29.356Z,78.70
2018-06-14T07:14:57.905Z,78.70
2018-06-14T07:17:26.459Z,78.60
2018-06-14T07:19:55.200Z,78.60
2018-06-14T07:22:41.290Z,78.50
2018-06-14T07:25:09.794Z,78.50
2018-06-14T07:27:38.397Z,78.40
2018-06-14T07:30:07.246Z,78.30
2018-06-14T07:32:35.823Z,78.30
2018-06-14T07:35:05.387Z,78.20
2018-06-14T07:37:33.931Z,78.10
2018-06-14T07:40:02.776Z,78.00
2018-06-14T07:42:31.458Z,78.00
2018-06-14T07:45:00.050Z,77.90
2018-06-14T07:47:28.668Z,77.80
2018-06-14T07:49:57.317Z,77.60
2018-06-14T07:52:25.915Z,77.70
2018-06-14T07:54:54.869Z,77.50
2018-06-14T07:57:23.604Z,77.90
2018-06-14T07:59:52.115Z,77.30
2018-06-14T08:02:20.650Z,77.30
2018-06-14T08:04:49.288Z,77.30
2018-06-14T08:07:17.787Z,77.20
2018-06-14T08:12:50.378Z,76.80
2018-06-14T08:15:19.128Z,76.60
2018-06-14T08:17:47.738Z,76.40
2018-06-14T08:20:16.404Z,76.40
2018-06-14T08:22:45.170Z,76.00
2018-06-14T08:25:13.898Z,76.00
2018-06-14T08:27:42.584Z,75.80
2018-06-14T08:30:11.561Z,75.60
2018-06-14T08:32:40.156Z,75.60
2018-06-14T08:35:11.453Z,75.10
2018-06-14T08:37:40.023Z,75.10
2018-06-14T08:40:08.661Z,75.00
2018-06-14T08:42:37.215Z,74.80
2018-06-14T08:45:05.862Z,74.10
2018-06-14T08:47:34.453Z,74.00
2018-06-14T08:50:03.310Z,74.30
2018-06-14T09:09:35.944Z,73.10
2018-06-14T09:12:04.723Z,72.50
2018-06-14T09:14:33.272Z,72.70
2018-06-14T09:17:01.769Z,73.10
2018-06-14T09:19:30.357Z,72.70
2018-06-14T09:21:59.084Z,72.50
2018-06-14T09:24:27.649Z,72.40
2018-06-14T09:26:56.312Z,72.40
2018-06-14T09:29:24.959Z,72.20
2018-06-14T09:31:53.687Z,72.20
2018-06-14T09:34:22.647Z,71.60
2018-06-14T09:36:51.157Z,71.50
2018-06-14T09:39:19.733Z,71.20
2018-06-14T09:41:48.391Z,71.20
2018-06-14T09:44:16.956Z,71.30
2018-06-14T09:46:45.672Z,71.30
2018-06-14T09:49:15.599Z,71.30
2018-06-14T09:51:45.252Z,71.30
2018-06-14T09:54:14.002Z,71.10
2018-06-14T09:56:42.614Z,71.00
2018-06-14T09:59:11.171Z,70.60
2018-06-14T10:01:40.655Z,70.30
2018-06-14T10:04:09.336Z,69.90
2018-06-14T10:06:38.080Z,69.70
2018-06-14T10:09:10.182Z,69.60
2018-06-14T10:11:38.839Z,70.00
2018-06-14T10:14:08.092Z,70.00
2018-06-14T10:16:36.732Z,69.70
2018-06-14T10:19:05.676Z,69.80
2018-06-14T10:21:34.267Z,69.50
2018-06-14T10:24:02.877Z,69.80
2018-06-14T10:26:31.461Z,69.10
2018-06-14T10:29:00.071Z,69.00
2018-06-14T10:31:28.709Z,69.10
2018-06-14T10:33:57.596Z,68.90
2018-06-14T10:36:26.075Z,68.70
2018-06-14T10:38:54.743Z,69.20
2018-06-14T10:41:23.298Z,69.10
2018-06-14T10:43:52.744Z,68.70
2018-06-14T10:46:21.780Z,69.10
2018-06-14T10:48:50.460Z,68.70
2018-06-14T11:02:52.177Z,68.40
2018-06-14T11:05:21.064Z,68.50
2018-06-14T11:07:49.797Z,68.40
2018-06-14T11:10:18.339Z,67.70
2018-06-14T11:12:47.068Z,68.20
2018-06-14T11:15:16.018Z,68.10
2018-06-14T11:17:44.658Z,68.00
2018-06-14T11:20:13.560Z,67.80
2018-06-14T11:22:42.167Z,67.40
2018-06-14T11:25:10.803Z,67.20
2018-06-14T11:27:40.428Z,66.90
2018-06-14T11:30:11.531Z,66.50
2018-06-14T11:32:40.219Z,66.80
2018-06-14T11:35:11.445Z,66.60
2018-06-14T11:37:40.688Z,66.60
2018-06-14T11:40:09.375Z,66.20
2018-06-14T11:42:38.142Z,65.70
2018-06-14T11:45:08.072Z,65.00
2018-06-14T11:47:37.444Z,65.10
2018-06-14T11:50:06.088Z,65.40
2018-06-14T11:52:36.475Z,66.10
2018-06-14T11:55:06.186Z,66.00
2018-06-14T11:57:34.896Z,65.90
2018-06-14T12:00:06.595Z,65.90
2018-06-14T12:02:36.543Z,65.20
2018-06-14T12:05:05.086Z,65.30
2018-06-14T12:07:33.867Z,64.50
2018-06-14T12:10:02.577Z,64.40
2018-06-14T12:12:31.080Z,64.70
2018-06-14T12:14:59.632Z,64.80
2018-06-14T12:17:28.720Z,64.40
2018-06-14T12:19:57.621Z,64.10
2018-06-14T12:22:26.528Z,64.20
2018-06-14T12:24:55.037Z,64.80
2018-06-14T12:27:24.532Z,63.90
2018-06-14T12:29:53.783Z,64.00
2018-06-14T12:32:23.623Z,63.60
2018-06-14T12:34:52.198Z,63.50
2018-06-14T12:39:49.644Z,63.50
2018-06-14T12:42:18.665Z,63.20
2018-06-14T12:44:48.013Z,63.00
2018-06-14T12:47:16.709Z,62.60
2018-06-14T12:49:45.390Z,61.80
2018-06-14T12:52:14.232Z,61.20
2018-06-14T12:54:42.964Z,62.30
2018-06-14T12:57:11.654Z,63.00
2018-06-14T12:59:40.840Z,62.80
2018-06-14T13:02:09.510Z,62.60
2018-06-14T13:04:38.345Z,62.60
2018-06-14T13:07:07.051Z,62.70
2018-06-14T13:09:53.692Z,63.00
2018-06-14T13:12:28.400Z,62.80
2018-06-14T13:14:56.947Z,62.60
2018-06-14T13:17:25.539Z,62.10
2018-06-14T13:19:54.148Z,61.70
2018-06-14T13:22:25.891Z,61.60
2018-06-14T13:24:54.553Z,62.00
2018-06-14T13:27:26.854Z,62.50
2018-06-14T13:29:55.540Z,61.90
2018-06-14T13:32:24.287Z,61.40
2018-06-14T13:37:21.278Z,61.50
2018-06-14T13:39:50.041Z,62.10
2018-06-14T13:42:18.723Z,61.50
2018-06-14T13:44:47.437Z,61.00
2018-06-14T13:47:16.193Z,61.40
2018-06-14T13:49:44.877Z,61.60
2018-06-14T13:52:14.453Z,61.30
2018-06-14T13:54:44.358Z,61.20
2018-06-14T13:57:13.241Z,61.20
2018-06-14T13:59:42.556Z,61.30
2018-06-14T14:02:12.224Z,60.70
2018-06-14T14:04:44.677Z,60.90
2018-06-14T14:07:14.619Z,60.80
2018-06-14T14:09:44.372Z,60.50
2018-06-14T14:12:14.382Z,60.50
2018-06-14T14:14:43.107Z,60.00
2018-06-14T14:17:11.805Z,60.70
2018-06-14T14:19:40.720Z,60.90
2018-06-14T14:22:09.990Z,61.00
2018-06-14T14:24:38.919Z,60.90
2018-06-14T14:27:07.769Z,60.20
2018-06-14T14:29:38.403Z,59.90
2018-06-14T14:32:07.469Z,60.40
2018-06-14T14:34:37.160Z,60.80
2018-06-14T14:37:06.195Z,60.90
2018-06-14T14:39:34.937Z,60.50
2018-06-14T14:42:03.940Z,60.20
2018-06-14T14:44:34.001Z,60.50
2018-06-14T14:47:02.636Z,60.40
2018-06-14T14:49:31.295Z,60.70
2018-06-14T15:17:44.388Z,61.60
2018-06-14T15:20:12.990Z,61.90
2018-06-14T15:22:42.312Z,62.20
2018-06-14T15:25:12.208Z,62.80
2018-06-14T15:27:42.017Z,63.50
2018-06-14T15:30:11.820Z,64.10
2018-06-14T15:32:41.324Z,63.30
2018-06-14T15:37:41.205Z,64.60
2018-06-14T15:40:11.932Z,64.90
2018-06-14T15:42:43.930Z,65.50
2018-06-14T15:45:15.368Z,65.80
2018-06-14T15:47:45.281Z,65.70
2018-06-14T15:50:26.996Z,66.20
2018-06-14T16:24:45.478Z,70.30
2018-06-14T16:27:15.265Z,70.10
2018-06-14T16:29:44.274Z,70.20
2018-06-14T16:32:12.975Z,70.30
2018-06-14T16:34:41.954Z,70.50
2018-06-14T16:37:10.648Z,71.00
2018-06-14T16:39:39.446Z,71.00
2018-06-14T16:42:08.837Z,71.20
2018-06-14T16:44:37.512Z,71.60
2018-06-14T16:47:06.211Z,71.90
2018-06-14T16:49:34.917Z,72.30
2018-06-14T16:52:03.737Z,72.40
2018-06-14T16:54:32.312Z,72.50
2018-06-14T16:57:00.872Z,72.80
2018-06-14T16:59:29.530Z,73.00
2018-06-14T17:01:58.152Z,73.10
2018-06-14T17:04:26.935Z,73.30
2018-06-14T17:06:56.051Z,73.40
2018-06-14T17:09:24.635Z,73.60
2018-06-14T17:11:53.166Z,73.80
2018-06-14T17:14:22.020Z,74.10
2018-06-14T17:33:55.691Z,75.00
2018-06-14T17:36:24.469Z,75.10
2018-06-14T17:38:53.210Z,75.10
2018-06-14T17:41:22.139Z,75.20
2018-06-14T17:43:50.848Z,75.40
2018-06-14T17:46:19.418Z,75.50
2018-06-14T17:48:48.036Z,75.50
2018-06-14T17:51:16.785Z,75.70
2018-06-14T17:53:45.391Z,75.70
2018-06-14T17:56:14.048Z,76.10
2018-06-14T17:58:43.401Z,76.10
2018-06-14T18:01:11.909Z,76.10
2018-06-14T18:03:40.654Z,76.30
2018-06-14T18:06:09.387Z,76.40
2018-06-14T18:08:37.912Z,76.50
2018-06-14T18:11:06.553Z,76.70
2018-06-14T18:13:35.244Z,76.80
2018-06-14T18:16:03.952Z,76.70
2018-06-14T18:18:32.548Z,76.90
2018-06-14T18:21:01.257Z,77.80
2018-06-14T18:23:29.886Z,77.10
2018-06-14T18:25:58.617Z,77.20
2018-06-14T18:28:27.291Z,77.90
2018-06-14T18:30:55.958Z,77.30
2018-06-14T18:33:29.711Z,77.40
2018-06-14T18:35:58.361Z,77.50
2018-06-14T18:38:27.233Z,77.60
2018-06-14T18:40:56.001Z,77.70
2018-06-14T18:43:24.936Z,77.70
2018-06-14T18:45:53.576Z,77.80
2018-06-14T18:48:22.208Z,77.90
2018-06-14T18:50:50.898Z,78.10
2018-06-14T18:53:19.641Z,78.00
2018-06-14T18:55:48.288Z,78.10
2018-06-14T18:58:16.836Z,78.30
2018-06-14T19:00:45.498Z,78.40
2018-06-14T19:03:14.110Z,78.50
2018-06-14T19:05:43.993Z,78.60
2018-06-14T19:25:13.169Z,78.90
2018-06-14T19:27:41.892Z,79.00
2018-06-14T19:30:11.723Z,79.10
2018-06-14T19:32:40.683Z,79.10
2018-06-14T19:35:09.851Z,79.20
2018-06-14T19:37:38.700Z,79.30
2018-06-14T19:40:07.619Z,79.40
2018-06-14T19:42:37.109Z,79.50
2018-06-14T19:45:07.980Z,79.50
2018-06-14T19:47:37.630Z,79.50
2018-06-14T19:50:06.399Z,79.60
2018-06-14T19:52:36.124Z,79.60
2018-06-14T19:55:06.991Z,79.70
2018-06-14T19:57:35.825Z,79.70
2018-06-14T20:00:05.522Z,79.80
2018-06-14T20:02:35.148Z,79.90
2018-06-14T20:05:05.265Z,79.80
2018-06-14T20:13:40.688Z,80.20
2018-06-14T20:16:12.199Z,80.20
2018-06-14T20:18:43.995Z,80.20
2018-06-14T20:21:14.392Z,80.30
2018-06-14T20:23:43.590Z,80.30
2018-06-14T20:26:14.709Z,80.40
2018-06-14T20:28:46.597Z,80.50
2018-06-14T20:31:15.673Z,80.60
2018-06-14T20:33:46.188Z,80.70
2018-06-14T20:36:15.953Z,80.70
2018-06-14T20:38:46.947Z,80.70
2018-06-14T20:41:16.636Z,80.80
2018-06-14T20:43:50.688Z,80.90
2018-06-14T20:46:23.395Z,80.90
2018-06-14T21:01:13.484Z,81.00
2018-06-14T21:03:44.276Z,81.20
2018-06-14T21:06:14.796Z,81.30
2018-06-14T21:08:51.007Z,81.30
2018-06-14T21:11:21.555Z,81.40
2018-06-14T21:13:54.085Z,81.50
2018-06-14T21:16:22.743Z,81.50
2018-06-14T21:18:52.609Z,81.50
2018-06-14T21:21:21.854Z,81.70
2018-06-14T21:23:51.668Z,81.70
2018-06-14T21:26:20.785Z,81.70
2018-06-14T21:28:49.873Z,81.80
2018-06-14T21:31:20.297Z,81.80
2018-06-14T21:33:52.284Z,81.90
2018-06-14T21:36:22.955Z,81.80
2018-06-14T21:38:53.725Z,81.90
2018-06-14T21:41:22.833Z,82.00
2018-06-14T21:43:53.919Z,82.00
2018-06-14T21:46:28.865Z,82.00
2018-06-14T21:48:59.127Z,82.20
2018-06-14T21:51:29.148Z,82.20
2018-06-14T21:54:04.481Z,82.20
2018-06-14T21:56:40.456Z,82.30
2018-06-14T21:59:10.590Z,82.40
2018-06-14T22:01:41.264Z,82.40
2018-06-14T22:04:10.980Z,82.50
2018-06-14T22:06:39.817Z,82.40
2018-06-14T22:09:09.301Z,82.50
2018-06-14T22:11:38.198Z,82.60
2018-06-14T22:16:52.222Z,82.70
2018-06-14T22:19:20.852Z,83.40
2018-06-14T22:38:57.366Z,83.10
2018-06-14T22:41:26.253Z,83.10
2018-06-14T22:43:55.152Z,83.10
2018-06-14T22:46:24.671Z,83.10
2018-06-14T22:48:53.551Z,83.20
2018-06-14T22:51:22.856Z,83.30
2018-06-14T22:53:51.705Z,83.40
2018-06-14T22:56:20.547Z,83.40
2018-06-14T22:58:49.319Z,83.60
2018-06-14T23:01:28.391Z,83.60
2018-06-14T23:03:58.372Z,83.60
2018-06-14T23:06:28.057Z,83.60
2018-06-14T23:08:57.159Z,83.60
2018-06-14T23:11:26.044Z,83.60
2018-06-14T23:13:54.769Z,83.60
2018-06-14T23:16:24.024Z,83.60
2018-06-14T23:18:52.921Z,83.70
2018-06-14T23:21:21.718Z,83.80
2018-06-14T23:23:51.012Z,83.80
2018-06-14T23:26:19.729Z,83.80
2018-06-14T23:28:49.081Z,83.80
2018-06-14T23:31:17.815Z,83.80
2018-06-14T23:33:47.621Z,84.00
2018-06-14T23:36:18.648Z,84.00
2018-06-14T23:38:49.906Z,83.90
2018-06-14T23:41:18.614Z,84.00
2018-06-14T23:44:01.784Z,84.00
2018-06-14T23:46:30.628Z,84.10
2018-06-14T23:49:01.801Z,84.10
2018-06-14T23:51:35.343Z,84.20
2018-06-14T23:54:05.879Z,84.20
2018-06-14T23:56:34.617Z,85.00
2018-06-14T23:59:03.348Z,84.30
